createdAt,value
2018-12-10T00:01:42.350Z,1.53
2018-12-10T00:04:10.501Z,1.47
2018-12-10T00:06:37.734Z,1.50
2018-12-10T00:09:05.546Z,1.77
2018-12-10T00:11:32.854Z,1.20
2018-12-10T00:14:00.067Z,1.30
2018-12-10T00:16:27.370Z,1.60
2018-12-10T00:18:54.751Z,1.40
2018-12-10T00:21:21.970Z,1.90
2018-12-10T00:23:49.159Z,1.73
2018-12-10T00:26:16.374Z,1.70
2018-12-10T00:28:43.634Z,1.83
2018-12-10T00:31:10.826Z,1.70
2018-12-10T00:33:38.006Z,1.67
2018-12-10T00:36:05.294Z,2.00
2018-12-10T00:38:32.634Z,1.93
2018-12-10T00:40:59.874Z,1.60
2018-12-10T00:43:27.081Z,1.57
2018-12-10T00:45:54.277Z,1.57
2018-12-10T00:48:21.512Z,1.90
2018-12-10T00:50:48.706Z,1.80
2018-12-10T00:53:15.898Z,2.17
2018-12-10T00:55:43.138Z,1.57
2018-12-10T00:58:10.394Z,2.10
2018-12-10T01:00:37.818Z,1.40
2018-12-10T01:03:05.055Z,1.83
2018-12-10T01:05:32.418Z,1.90
2018-12-10T01:07:59.769Z,1.87
2018-12-10T01:10:26.950Z,1.63
2018-12-10T01:12:54.128Z,1.87
2018-12-10T01:15:21.442Z,2.03
2018-12-10T01:17:48.694Z,1.87
2018-12-10T01:20:15.881Z,1.53
2018-12-10T01:22:43.062Z,2.30
2018-12-10T01:25:10.426Z,1.70
2018-12-10T01:27:37.628Z,2.10
2018-12-10T01:30:06.629Z,1.80
2018-12-10T01:32:33.845Z,1.93
2018-12-10T01:35:01.051Z,1.80
2018-12-10T01:37:28.526Z,1.93
2018-12-10T01:39:55.733Z,1.87
2018-12-10T01:42:22.942Z,1.80
2018-12-10T01:44:50.133Z,1.97
2018-12-10T01:47:17.350Z,1.70
2018-12-10T01:49:44.534Z,2.00
2018-12-10T01:52:11.734Z,2.00
2018-12-10T01:54:38.922Z,2.13
2018-12-10T01:57:06.133Z,1.80
2018-12-10T01:59:33.333Z,1.97
2018-12-10T02:02:00.539Z,1.73
2018-12-10T02:04:27.738Z,1.87
2018-12-10T02:06:54.954Z,1.90
2018-12-10T02:09:22.186Z,2.30
2018-12-10T02:11:49.378Z,2.20
2018-12-10T02:14:16.618Z,2.00
2018-12-10T02:16:43.793Z,1.90
2018-12-10T02:19:11.081Z,2.10
2018-12-10T02:21:38.329Z,2.13
2018-12-10T02:24:05.526Z,1.70
2018-12-10T02:26:32.714Z,2.00
2018-12-10T02:29:05.608Z,2.10
2018-12-10T02:31:32.788Z,1.90
2018-12-10T02:34:00.418Z,1.87
2018-12-10T02:36:27.607Z,2.00
2018-12-10T02:38:54.812Z,1.70
2018-12-10T02:41:22.199Z,1.73
2018-12-10T02:43:49.530Z,2.20
2018-12-10T02:46:16.721Z,1.97
2018-12-10T02:48:43.919Z,1.73
2018-12-10T02:51:11.192Z,1.90
2018-12-10T02:53:38.406Z,1.70
2018-12-10T02:56:05.886Z,1.83
2018-12-10T02:58:33.072Z,1.83
2018-12-10T03:01:00.291Z,2.20
2018-12-10T03:03:27.671Z,1.60
2018-12-10T03:05:54.852Z,1.40
2018-12-10T03:08:22.054Z,1.30
2018-12-10T03:10:49.286Z,1.60
2018-12-10T03:13:16.674Z,1.30
2018-12-10T03:15:46.848Z,1.50
2018-12-10T03:18:15.293Z,1.37
2018-12-10T03:20:43.602Z,1.50
2018-12-10T03:23:11.991Z,1.70
2018-12-10T03:25:40.304Z,1.60
2018-12-10T03:28:08.554Z,1.90
2018-12-10T03:30:38.297Z,1.40
2018-12-10T03:33:06.510Z,1.33
2018-12-10T03:35:34.726Z,1.60
2018-12-10T03:38:02.879Z,1.60
2018-12-10T03:40:31.289Z,1.53
2018-12-10T03:42:59.283Z,1.50
2018-12-10T03:45:27.361Z,1.70
2018-12-10T03:47:55.471Z,1.83
2018-12-10T03:50:30.266Z,1.50
2018-12-10T03:52:58.245Z,1.63
2018-12-10T03:55:26.246Z,1.53
2018-12-10T03:57:54.185Z,1.60
2018-12-10T04:00:22.089Z,1.20
2018-12-10T04:02:50.037Z,1.53
2018-12-10T04:05:17.698Z,1.50
2018-12-10T04:07:45.354Z,1.50
2018-12-10T04:10:13.009Z,2.03
2018-12-10T04:12:40.610Z,1.53
2018-12-10T04:15:08.220Z,2.07
2018-12-10T04:17:35.566Z,0.93
2018-12-10T04:20:02.993Z,1.20
2018-12-10T04:22:30.226Z,1.37
2018-12-10T04:24:57.396Z,1.47
2018-12-10T04:27:24.682Z,1.30
2018-12-10T04:29:51.847Z,1.23
2018-12-10T04:32:19.010Z,1.20
2018-12-10T04:34:46.203Z,1.00
2018-12-10T04:37:13.392Z,1.40
2018-12-10T04:39:40.665Z,0.70
2018-12-10T04:42:07.966Z,1.10
2018-12-10T04:44:35.175Z,1.13
2018-12-10T04:47:02.517Z,1.20
2018-12-10T04:49:29.693Z,1.20
2018-12-10T04:51:56.938Z,0.93
2018-12-10T04:54:24.230Z,1.20
2018-12-10T04:56:58.033Z,1.10
2018-12-10T04:59:25.206Z,1.23
2018-12-10T05:01:52.400Z,1.37
2018-12-10T05:04:19.605Z,1.50
2018-12-10T05:06:46.771Z,1.60
2018-12-10T05:09:13.949Z,1.53
2018-12-10T05:11:41.246Z,1.70
2018-12-10T05:14:08.446Z,1.77
2018-12-10T05:16:35.656Z,1.73
2018-12-10T05:19:03.019Z,1.87
2018-12-10T05:21:30.195Z,1.80
2018-12-10T05:23:57.398Z,2.23
2018-12-10T05:26:24.577Z,1.80
2018-12-10T05:28:51.810Z,2.00
2018-12-10T05:31:19.042Z,1.97
2018-12-10T05:33:46.262Z,2.30
2018-12-10T05:36:13.462Z,1.73
2018-12-10T05:38:40.678Z,1.93
2018-12-10T05:41:07.877Z,2.00
2018-12-10T05:43:35.122Z,2.00
2018-12-10T05:46:02.304Z,2.23
2018-12-10T05:48:29.561Z,2.00
2018-12-10T05:50:56.967Z,2.10
2018-12-10T05:53:24.305Z,1.93
2018-12-10T05:55:51.530Z,2.93
2018-12-10T05:58:18.889Z,7.10
2018-12-10T06:00:46.210Z,2.20
2018-12-10T06:03:13.387Z,6.53
2018-12-10T06:05:40.642Z,8.47
2018-12-10T06:08:07.830Z,3.60
2018-12-10T06:10:35.075Z,5.33
2018-12-10T06:13:02.258Z,2.30
2018-12-10T06:15:29.451Z,2.33
2018-12-10T06:17:56.654Z,2.10
2018-12-10T06:20:23.818Z,1.90
2018-12-10T06:22:51.050Z,1.87
2018-12-10T06:25:18.258Z,1.90
2018-12-10T06:27:45.547Z,2.00
2018-12-10T06:30:13.190Z,2.00
2018-12-10T06:32:40.367Z,2.27
2018-12-10T06:35:07.678Z,1.97
2018-12-10T06:37:37.664Z,1.90
2018-12-10T06:40:05.042Z,1.97
2018-12-10T06:42:32.259Z,2.10
2018-12-10T06:44:59.537Z,1.67
2018-12-10T06:47:26.897Z,2.07
2018-12-10T06:49:54.111Z,1.90
2018-12-10T06:52:21.310Z,1.80
2018-12-10T06:54:48.502Z,2.37
2018-12-10T06:57:15.717Z,2.30
2018-12-10T06:59:42.890Z,2.00
2018-12-10T07:02:10.114Z,1.80
2018-12-10T07:04:37.295Z,1.87
2018-12-10T07:07:04.623Z,1.97
2018-12-10T07:09:31.822Z,1.80
2018-12-10T07:11:59.018Z,1.80
2018-12-10T07:14:26.226Z,1.63
2018-12-10T07:16:54.541Z,1.80
2018-12-10T07:19:21.861Z,1.87
2018-12-10T07:21:49.178Z,1.57
2018-12-10T07:24:16.404Z,1.60
2018-12-10T07:26:43.605Z,1.90
2018-12-10T07:29:10.899Z,2.20
2018-12-10T07:31:38.134Z,2.13
2018-12-10T07:34:05.353Z,1.70
2018-12-10T07:36:32.550Z,1.87
2018-12-10T07:38:59.718Z,2.10
2018-12-10T07:41:27.026Z,1.63
2018-12-10T07:43:54.218Z,1.57
2018-12-10T07:46:21.418Z,1.87
2018-12-10T07:48:48.611Z,1.70
2018-12-10T07:51:15.853Z,1.80
2018-12-10T07:53:43.454Z,1.70
2018-12-10T07:56:10.658Z,1.90
2018-12-10T07:58:37.837Z,2.17
2018-12-10T08:01:05.306Z,1.47
2018-12-10T08:03:32.515Z,1.67
2018-12-10T08:05:59.731Z,1.50
2018-12-10T08:08:27.275Z,1.77
2018-12-10T08:10:54.449Z,1.77
2018-12-10T08:13:21.657Z,1.37
2018-12-10T08:15:48.850Z,1.80
2018-12-10T08:18:16.078Z,1.70
2018-12-10T08:20:43.435Z,2.13
2018-12-10T08:23:10.950Z,1.77
2018-12-10T08:25:38.157Z,1.70
2018-12-10T08:28:05.498Z,1.80
2018-12-10T08:30:32.830Z,1.90
2018-12-10T08:33:00.035Z,1.53
2018-12-10T08:35:27.372Z,2.17
2018-12-10T08:37:54.830Z,1.67
2018-12-10T08:40:22.129Z,1.67
2018-12-10T08:42:49.454Z,1.57
2018-12-10T08:45:16.910Z,2.00
2018-12-10T08:47:44.214Z,1.63
2018-12-10T08:50:11.553Z,1.63
2018-12-10T08:52:38.750Z,1.87
2018-12-10T08:55:05.946Z,1.60
2018-12-10T08:57:33.168Z,1.73
2018-12-10T09:00:00.365Z,1.40
2018-12-10T09:02:27.606Z,1.57
2018-12-10T09:04:54.812Z,1.60
2018-12-10T09:07:22.026Z,1.60
2018-12-10T09:09:49.367Z,1.75
2018-12-10T09:12:16.715Z,1.57
2018-12-10T09:14:43.931Z,1.60
2018-12-10T09:17:11.122Z,1.40
2018-12-10T09:19:38.735Z,1.70
2018-12-10T09:22:05.945Z,1.60
2018-12-10T09:24:33.258Z,1.47
2018-12-10T09:27:00.469Z,1.80
2018-12-10T09:29:27.705Z,1.62
2018-12-10T09:31:55.186Z,1.40
2018-12-10T09:34:22.389Z,1.80
2018-12-10T09:36:49.621Z,1.95
2018-12-10T09:39:16.842Z,1.72
2018-12-10T09:41:46.376Z,2.00
2018-12-10T09:44:13.629Z,1.85
2018-12-10T09:46:40.940Z,4.45
2018-12-10T09:49:08.279Z,3.65
2018-12-10T09:51:35.586Z,2.10
2018-12-10T09:54:03.044Z,1.60
2018-12-10T09:56:31.177Z,1.45
2018-12-10T09:58:58.405Z,1.40
2018-12-10T10:01:26.189Z,1.30
2018-12-10T10:03:53.546Z,1.50
2018-12-10T10:06:20.757Z,1.52
2018-12-10T10:08:49.641Z,1.40
2018-12-10T10:11:17.861Z,1.20
2018-12-10T10:13:45.237Z,1.40
2018-12-10T10:16:12.573Z,1.33
2018-12-10T10:18:39.783Z,1.80
2018-12-10T10:21:11.361Z,1.67
2018-12-10T10:23:36.430Z,3.00
2018-12-10T10:26:03.799Z,1.80
2018-12-10T10:28:31.007Z,1.50
2018-12-10T10:30:58.247Z,1.40
2018-12-10T10:33:32.321Z,1.53
2018-12-10T10:35:54.686Z,1.57
2018-12-10T10:38:22.277Z,1.50
2018-12-10T10:40:49.498Z,1.50
2018-12-10T10:43:16.730Z,1.40
2018-12-10T10:45:44.054Z,1.30
2018-12-10T10:48:11.278Z,1.50
2018-12-10T10:50:38.470Z,1.17
2018-12-10T10:53:06.111Z,1.60
2018-12-10T10:55:33.292Z,1.37
2018-12-10T10:58:00.670Z,1.50
2018-12-10T11:00:33.667Z,1.60
2018-12-10T11:03:03.827Z,1.33
2018-12-10T11:05:31.082Z,1.20
2018-12-10T11:07:58.270Z,1.43
2018-12-10T11:10:25.517Z,1.47
2018-12-10T11:12:52.733Z,1.30
2018-12-10T11:15:20.102Z,1.30
2018-12-10T11:17:47.338Z,1.30
2018-12-10T11:20:14.528Z,1.67
2018-12-10T11:22:41.767Z,1.70
2018-12-10T11:25:09.214Z,1.47
2018-12-10T11:27:36.551Z,1.53
2018-12-10T11:30:04.691Z,1.50
2018-12-10T11:32:32.034Z,1.47
2018-12-10T11:34:59.217Z,1.13
2018-12-10T11:37:26.453Z,1.27
2018-12-10T11:39:53.667Z,1.50
2018-12-10T11:42:20.873Z,1.43
2018-12-10T11:44:48.538Z,1.63
2018-12-10T11:47:15.730Z,1.40
2018-12-10T11:49:42.965Z,1.90
2018-12-10T11:52:10.293Z,1.50
2018-12-10T11:54:37.505Z,1.80
2018-12-10T11:57:04.744Z,1.57
2018-12-10T11:59:31.958Z,1.77
2018-12-10T12:01:59.313Z,1.53
2018-12-10T12:04:26.608Z,1.47
2018-12-10T12:06:53.778Z,1.40
2018-12-10T12:09:21.134Z,1.57
2018-12-10T12:11:48.353Z,1.50
2018-12-10T12:14:15.567Z,1.57
2018-12-10T12:16:42.920Z,1.40
2018-12-10T12:19:11.369Z,1.67
2018-12-10T12:21:39.049Z,1.30
2018-12-10T12:24:06.230Z,1.80
2018-12-10T12:26:33.478Z,2.07
2018-12-10T12:29:00.673Z,1.90
2018-12-10T12:31:27.907Z,2.10
2018-12-10T12:33:55.434Z,2.20
2018-12-10T12:36:22.987Z,1.47
2018-12-10T12:38:50.237Z,1.50
2018-12-10T12:41:17.422Z,1.80
2018-12-10T12:43:44.618Z,2.93
2018-12-10T12:46:11.811Z,1.70
2018-12-10T12:48:39.004Z,2.33
2018-12-10T12:51:06.325Z,2.90
2018-12-10T12:53:34.421Z,2.83
2018-12-10T12:56:01.795Z,1.90
2018-12-10T12:58:29.122Z,2.10
2018-12-10T13:00:59.886Z,1.80
2018-12-10T13:03:25.663Z,1.83
2018-12-10T13:05:53.102Z,1.70
2018-12-10T13:08:20.426Z,1.63
2018-12-10T13:10:47.618Z,1.60
2018-12-10T13:13:14.813Z,1.70
2018-12-10T13:15:42.048Z,1.67
2018-12-10T13:18:09.317Z,1.33
2018-12-10T13:20:36.522Z,1.60
2018-12-10T13:23:03.718Z,6.17
2018-12-10T13:25:30.932Z,2.27
2018-12-10T13:27:58.265Z,2.10
2018-12-10T13:30:25.542Z,1.80
2018-12-10T13:32:52.885Z,1.80
2018-12-10T13:35:20.938Z,1.85
2018-12-10T13:37:48.118Z,1.65
2018-12-10T13:40:15.435Z,1.77
2018-12-10T13:42:42.646Z,1.80
2018-12-10T13:45:09.887Z,1.80
2018-12-10T13:47:37.104Z,1.60
2018-12-10T13:50:04.607Z,2.07
2018-12-10T13:52:31.810Z,1.90
2018-12-10T13:54:59.183Z,1.87
2018-12-10T13:57:26.498Z,1.90
2018-12-10T13:59:53.701Z,1.83
2018-12-10T14:02:21.003Z,1.63
2018-12-10T14:08:25.602Z,1.90
2018-12-10T14:10:52.839Z,1.60
2018-12-10T14:13:20.072Z,1.83
2018-12-10T14:15:47.362Z,1.60
2018-12-10T14:18:14.689Z,1.50
2018-12-10T14:20:41.861Z,1.90
2018-12-10T14:23:09.215Z,1.50
2018-12-10T14:25:36.406Z,1.80
2018-12-10T14:28:03.966Z,1.73
2018-12-10T14:30:31.200Z,1.43
2018-12-10T14:32:58.435Z,1.73
2018-12-10T14:35:25.649Z,2.40
2018-12-10T14:37:53.083Z,1.80
2018-12-10T14:40:20.523Z,2.30
2018-12-10T14:42:53.421Z,2.23
2018-12-10T14:45:20.833Z,2.67
2018-12-10T14:47:50.674Z,2.30
2018-12-10T14:50:18.019Z,2.00
2018-12-10T14:52:45.377Z,2.20
2018-12-10T14:55:12.622Z,2.30
2018-12-10T14:57:40.073Z,2.30
2018-12-10T15:00:09.214Z,2.30
2018-12-10T15:02:36.522Z,2.60
2018-12-10T15:05:04.533Z,2.50
2018-12-10T15:07:31.750Z,2.47
2018-12-10T15:09:58.947Z,2.60
2018-12-10T15:12:26.235Z,2.63
2018-12-10T15:14:53.525Z,2.60
2018-12-10T15:17:20.719Z,2.70
2018-12-10T15:19:49.511Z,3.00
2018-12-10T15:22:16.755Z,2.30
2018-12-10T15:24:43.971Z,2.27
2018-12-10T15:27:11.215Z,2.33
2018-12-10T15:29:38.413Z,2.20
2018-12-10T15:32:05.651Z,2.50
2018-12-10T15:34:32.851Z,2.00
2018-12-10T15:37:00.080Z,2.20
2018-12-10T15:39:27.279Z,2.10
2018-12-10T15:41:54.602Z,1.73
2018-12-10T15:44:21.846Z,1.97
2018-12-10T15:46:49.198Z,2.00
2018-12-10T15:49:16.416Z,2.00
2018-12-10T15:51:43.793Z,1.70
2018-12-10T15:54:11.003Z,1.93
2018-12-10T15:56:38.231Z,1.90
2018-12-10T15:59:05.501Z,2.10
2018-12-10T16:01:32.775Z,1.90
2018-12-10T16:04:00.067Z,2.00
2018-12-10T16:06:27.303Z,2.40
2018-12-10T16:08:54.522Z,1.80
2018-12-10T16:11:21.795Z,1.93
2018-12-10T16:13:49.078Z,2.13
2018-12-10T16:16:16.323Z,2.00
2018-12-10T16:18:43.518Z,2.00
2018-12-10T16:21:10.755Z,1.80
2018-12-10T16:23:37.950Z,2.00
2018-12-10T16:26:05.287Z,2.20
2018-12-10T16:28:32.521Z,2.50
2018-12-10T16:31:00.349Z,2.40
2018-12-10T16:33:27.566Z,2.60
2018-12-10T16:35:55.159Z,2.60
2018-12-10T16:38:22.346Z,2.57
2018-12-10T16:40:49.593Z,2.70
2018-12-10T16:43:16.818Z,2.70
2018-12-10T16:45:44.134Z,3.20
2018-12-10T16:48:11.457Z,2.40
2018-12-10T16:50:38.678Z,2.70
2018-12-10T16:53:06.035Z,2.73
2018-12-10T16:55:33.369Z,3.27
2018-12-10T16:58:00.574Z,2.70
2018-12-10T17:00:27.894Z,2.70
2018-12-10T17:02:55.234Z,3.20
2018-12-10T17:05:27.067Z,2.93
2018-12-10T17:07:56.099Z,3.00
2018-12-10T17:10:24.205Z,3.67
2018-12-10T17:16:01.335Z,5.27
2018-12-10T17:18:37.332Z,4.20
2018-12-10T17:21:04.810Z,4.13
2018-12-10T17:23:35.731Z,4.10
2018-12-10T17:26:02.974Z,4.67
2018-12-10T17:28:30.404Z,4.70
2018-12-10T17:30:57.654Z,4.20
2018-12-10T17:33:24.882Z,3.87
2018-12-10T17:35:52.098Z,3.70
2018-12-10T17:38:19.334Z,3.17
2018-12-10T17:40:46.585Z,3.20
2018-12-10T17:43:13.816Z,3.00
2018-12-10T17:45:41.203Z,3.13
2018-12-10T17:48:09.186Z,3.50
2018-12-10T17:50:36.825Z,3.77
2018-12-10T17:53:04.178Z,4.30
2018-12-10T17:55:31.421Z,4.13
2018-12-10T17:57:58.682Z,4.57
2018-12-10T18:00:26.101Z,5.03
2018-12-10T18:02:53.583Z,5.67
2018-12-10T18:05:20.852Z,5.00
2018-12-10T18:07:48.702Z,4.50
2018-12-10T18:10:16.106Z,2.87
2018-12-10T18:12:43.315Z,3.50
2018-12-10T18:15:10.595Z,2.93
2018-12-10T18:17:52.278Z,3.30
2018-12-10T18:20:23.674Z,3.43
2018-12-10T18:22:50.941Z,4.10
2018-12-10T18:25:18.252Z,3.80
2018-12-10T18:27:45.443Z,3.40
2018-12-10T18:30:12.917Z,3.73
2018-12-10T18:32:40.218Z,4.27
2018-12-10T18:35:09.462Z,5.17
2018-12-10T18:37:36.771Z,4.80
2018-12-10T18:40:06.134Z,5.07
2018-12-10T18:42:33.408Z,4.83
2018-12-10T18:45:00.637Z,5.00
2018-12-10T18:47:27.838Z,7.07
2018-12-10T18:49:55.017Z,5.10
2018-12-10T18:52:22.641Z,5.13
2018-12-10T18:54:49.970Z,5.30
2018-12-10T18:57:17.199Z,6.30
2018-12-10T18:59:44.813Z,7.20
2018-12-10T19:02:12.137Z,6.87
2018-12-10T19:04:39.352Z,8.60
2018-12-10T19:07:06.643Z,8.90
2018-12-10T19:09:33.977Z,6.80
2018-12-10T19:12:01.248Z,7.43
2018-12-10T19:14:28.442Z,7.73
2018-12-10T19:16:55.776Z,7.00
2018-12-10T19:19:23.218Z,5.67
2018-12-10T19:21:50.794Z,6.50
2018-12-10T19:24:18.062Z,6.03
2018-12-10T19:26:45.306Z,4.80
2018-12-10T19:29:12.601Z,5.63
2018-12-10T19:31:39.826Z,5.40
2018-12-10T19:34:07.038Z,6.23
2018-12-10T19:36:34.376Z,5.23
2018-12-10T19:39:02.308Z,5.40
2018-12-10T19:41:29.717Z,5.40
2018-12-10T19:43:57.027Z,5.30
2018-12-10T19:46:24.385Z,5.90
2018-12-10T19:48:51.702Z,5.17
2018-12-10T19:51:18.954Z,6.10
2018-12-10T19:53:46.138Z,5.50
2018-12-10T19:56:13.485Z,6.27
2018-12-10T19:58:40.821Z,5.10
2018-12-10T20:01:08.395Z,5.73
2018-12-10T20:03:35.674Z,5.47
2018-12-10T20:06:08.719Z,5.50
2018-12-10T20:08:36.071Z,5.27
2018-12-10T20:11:03.407Z,6.47
2018-12-10T20:13:30.634Z,5.30
2018-12-10T20:15:57.905Z,5.60
2018-12-10T20:18:25.146Z,5.53
2018-12-10T20:20:52.322Z,5.90
2018-12-10T20:23:19.531Z,5.33
2018-12-10T20:25:46.728Z,5.53
2018-12-10T20:28:13.922Z,5.37
2018-12-10T20:30:41.425Z,5.00
2018-12-10T20:33:08.747Z,5.20
2018-12-10T20:35:36.099Z,4.87
2018-12-10T20:38:03.515Z,4.87
2018-12-10T20:40:30.771Z,4.90
2018-12-10T20:42:57.967Z,5.30
2018-12-10T20:45:25.214Z,5.30
2018-12-10T20:47:52.410Z,5.10
2018-12-10T20:50:19.758Z,5.63
2018-12-10T20:52:46.961Z,5.50
2018-12-10T20:55:14.158Z,5.53
2018-12-10T20:57:41.668Z,5.23
2018-12-10T21:00:09.124Z,5.50
2018-12-10T21:02:36.379Z,4.60
2018-12-10T21:05:04.056Z,5.33
2018-12-10T21:07:31.374Z,5.27
2018-12-10T21:09:58.590Z,5.23
2018-12-10T21:12:25.823Z,5.17
2018-12-10T21:14:53.154Z,4.90
2018-12-10T21:17:20.343Z,4.90
2018-12-10T21:19:47.607Z,4.97
2018-12-10T21:22:14.971Z,5.13
2018-12-10T21:24:42.218Z,4.90
2018-12-10T21:27:09.973Z,5.43
2018-12-10T21:29:38.035Z,5.00
2018-12-10T21:32:05.291Z,4.83
2018-12-10T21:34:32.528Z,4.50
2018-12-10T21:37:00.226Z,4.77
2018-12-10T21:39:27.451Z,4.67
2018-12-10T21:41:54.657Z,4.90
2018-12-10T21:44:21.874Z,4.83
2018-12-10T21:46:49.078Z,4.20
2018-12-10T21:49:16.853Z,4.27
2018-12-10T21:51:44.055Z,4.20
2018-12-10T21:54:11.276Z,4.40
2018-12-10T21:56:38.605Z,4.23
2018-12-10T21:59:05.813Z,3.53
2018-12-10T22:01:33.018Z,3.47
2018-12-10T22:04:00.445Z,3.80
2018-12-10T22:06:27.767Z,3.10
2018-12-10T22:08:54.961Z,2.60
2018-12-10T22:11:22.191Z,2.50
2018-12-10T22:13:49.376Z,2.33
2018-12-10T22:16:16.591Z,2.27
2018-12-10T22:18:43.778Z,2.23
2018-12-10T22:21:11.002Z,2.17
2018-12-10T22:23:38.185Z,2.40
2018-12-10T22:26:05.417Z,2.30
2018-12-10T22:28:32.613Z,2.63
2018-12-10T22:30:59.825Z,3.50
2018-12-10T22:33:27.193Z,2.80
2018-12-10T22:35:54.470Z,2.50
2018-12-10T22:38:21.739Z,2.70
2018-12-10T22:40:48.971Z,2.47
2018-12-10T22:43:16.158Z,2.30
2018-12-10T22:45:43.370Z,2.53
2018-12-10T22:48:10.554Z,2.70
2018-12-10T22:50:37.894Z,2.40
2018-12-10T22:53:05.138Z,3.00
2018-12-10T22:55:32.463Z,2.83
2018-12-10T22:58:00.018Z,2.60
2018-12-10T23:00:33.311Z,3.07
2018-12-10T23:03:00.542Z,3.33
2018-12-10T23:05:27.755Z,3.00
2018-12-10T23:07:55.322Z,3.03
2018-12-10T23:10:22.530Z,3.07
2018-12-10T23:12:49.743Z,3.27
2018-12-10T23:15:16.927Z,3.50
2018-12-10T23:17:44.182Z,2.97
2018-12-10T23:20:11.625Z,3.40
2018-12-10T23:22:39.058Z,3.77
2018-12-10T23:25:06.362Z,3.50
2018-12-10T23:27:33.564Z,3.40
2018-12-10T23:30:00.786Z,3.37
2018-12-10T23:32:27.955Z,3.63
2018-12-10T23:34:55.162Z,3.53
2018-12-10T23:37:22.390Z,3.63
2018-12-10T23:39:49.715Z,3.70
2018-12-10T23:42:16.926Z,3.57
2018-12-10T23:44:49.776Z,3.83
2018-12-10T23:47:17.125Z,3.80
2018-12-10T23:49:44.314Z,3.90
2018-12-10T23:52:11.547Z,3.70
2018-12-10T23:54:38.982Z,3.70
2018-12-10T23:57:06.208Z,3.40
2018-12-10T23:59:33.413Z,3.37
